sensor_id;sensor_type;location;lat;lon;timestamp;pressure;altitude;pressure_sealevel;temperature;humidity
50364;BME280;36272;59.400;17.982;2023-03-21T00:04:54;100951.16;;;2.49;94.04
50364;BME280;36272;59.400;17.982;2023-03-21T00:09:56;100950.97;;;2.51;94.01
50364;BME280;36272;59.400;17.982;2023-03-21T00:14:58;100947.88;;;2.56;93.83
50364;BME280;36272;59.400;17.982;2023-03-21T00:20:06;100936.13;;;2.50;93.98
50364;BME280;36272;59.400;17.982;2023-03-21T00:25:12;100930.69;;;2.43;93.87
50364;BME280;36272;59.400;17.982;2023-03-21T00:30:14;100933.31;;;2.43;94.24
50364;BME280;36272;59.400;17.982;2023-03-21T00:35:16;100936.78;;;2.44;93.91
50364;BME280;36272;59.400;17.982;2023-03-21T00:40:18;100934.47;;;2.41;94.08
50364;BME280;36272;59.400;17.982;2023-03-21T00:45:21;100926.22;;;2.35;94.05
50364;BME280;36272;59.400;17.982;2023-03-21T00:50:22;100922.59;;;2.36;94.06
50364;BME280;36272;59.400;17.982;2023-03-21T00:55:24;100927.22;;;2.34;94.07
50364;BME280;36272;59.400;17.982;2023-03-21T01:00:27;100924.91;;;2.40;94.27
50364;BME280;36272;59.400;17.982;2023-03-21T01:05:29;100933.00;;;2.46;93.92
50364;BME280;36272;59.400;17.982;2023-03-21T01:10:51;100938.44;;;2.45;93.88
50364;BME280;36272;59.400;17.982;2023-03-21T01:15:55;100935.97;;;2.43;94.20
50364;BME280;36272;59.400;17.982;2023-03-21T01:20:58;100930.84;;;2.42;94.03
50364;BME280;36272;59.400;17.982;2023-03-21T01:26:00;100948.69;;;2.40;94.10
50364;BME280;36272;59.400;17.982;2023-03-21T01:31:03;100956.59;;;2.40;93.99
50364;BME280;36272;59.400;17.982;2023-03-21T01:36:05;100950.47;;;2.39;93.97
50364;BME280;36272;59.400;17.982;2023-03-21T01:41:37;100938.78;;;2.42;94.77
50364;BME280;36272;59.400;17.982;2023-03-21T01:46:57;100958.25;;;2.41;94.04
50364;BME280;36272;59.400;17.982;2023-03-21T01:52:03;100946.69;;;2.33;94.40
50364;BME280;36272;59.400;17.982;2023-03-21T01:57:09;100941.06;;;2.36;94.38
50364;BME280;36272;59.400;17.982;2023-03-21T02:02:25;100950.31;;;2.32;94.46
50364;BME280;36272;59.400;17.982;2023-03-21T02:07:33;100950.59;;;2.21;94.25
50364;BME280;36272;59.400;17.982;2023-03-21T02:12:36;100955.53;;;2.16;94.17
50364;BME280;36272;59.400;17.982;2023-03-21T02:28:50;100966.19;;;1.98;94.46
50364;BME280;36272;59.400;17.982;2023-03-21T02:39:54;100971.91;;;1.85;94.68
50364;BME280;36272;59.400;17.982;2023-03-21T02:45:18;100972.41;;;1.88;94.64
50364;BME280;36272;59.400;17.982;2023-03-21T02:50:32;100973.41;;;1.87;94.70
50364;BME280;36272;59.400;17.982;2023-03-21T02:55:38;100973.56;;;1.86;94.53
50364;BME280;36272;59.400;17.982;2023-03-21T03:00:43;100980.34;;;1.88;94.79
50364;BME280;36272;59.400;17.982;2023-03-21T03:05:51;100974.25;;;1.88;94.98
50364;BME280;36272;59.400;17.982;2023-03-21T03:21:44;100979.03;;;1.92;94.84
50364;BME280;36272;59.400;17.982;2023-03-21T03:27:08;100981.03;;;1.99;95.29
50364;BME280;36272;59.400;17.982;2023-03-21T03:32:34;100983.69;;;1.99;95.14
50364;BME280;36272;59.400;17.982;2023-03-21T03:37:39;100986.63;;;1.96;95.05
50364;BME280;36272;59.400;17.982;2023-03-21T03:42:48;100988.28;;;1.97;94.92
50364;BME280;36272;59.400;17.982;2023-03-21T03:53:36;101001.84;;;2.02;95.01
50364;BME280;36272;59.400;17.982;2023-03-21T03:58:41;101002.34;;;2.05;94.74
50364;BME280;36272;59.400;17.982;2023-03-21T04:03:46;100999.34;;;2.00;94.40
50364;BME280;36272;59.400;17.982;2023-03-21T04:08:51;101008.41;;;1.98;94.69
50364;BME280;36272;59.400;17.982;2023-03-21T04:13:52;101016.16;;;1.91;94.80
50364;BME280;36272;59.400;17.982;2023-03-21T04:18:54;101003.63;;;1.93;94.94
50364;BME280;36272;59.400;17.982;2023-03-21T04:23:56;101010.06;;;1.99;94.70
50364;BME280;36272;59.400;17.982;2023-03-21T04:28:59;101002.97;;;1.99;94.49
50364;BME280;36272;59.400;17.982;2023-03-21T04:34:05;100997.81;;;1.89;94.42
50364;BME280;36272;59.400;17.982;2023-03-21T04:39:12;101017.13;;;1.90;94.85
50364;BME280;36272;59.400;17.982;2023-03-21T04:44:15;101020.56;;;1.90;94.24
50364;BME280;36272;59.400;17.982;2023-03-21T04:49:22;101018.38;;;1.77;94.28
50364;BME280;36272;59.400;17.982;2023-03-21T04:54:24;101039.44;;;1.69;94.34
50364;BME280;36272;59.400;17.982;2023-03-21T04:59:26;101041.44;;;1.75;94.68
50364;BME280;36272;59.400;17.982;2023-03-21T05:04:28;101039.47;;;1.77;94.44
50364;BME280;36272;59.400;17.982;2023-03-21T05:09:30;101036.06;;;1.85;94.35
50364;BME280;36272;59.400;17.982;2023-03-21T05:14:31;101039.31;;;1.79;94.18
50364;BME280;36272;59.400;17.982;2023-03-21T05:19:33;101043.78;;;1.78;94.69
50364;BME280;36272;59.400;17.982;2023-03-21T05:24:40;101046.41;;;1.78;94.56
50364;BME280;36272;59.400;17.982;2023-03-21T05:29:42;101042.16;;;1.86;94.62
50364;BME280;36272;59.400;17.982;2023-03-21T05:34:44;101031.13;;;1.90;94.59
50364;BME280;36272;59.400;17.982;2023-03-21T05:39:46;101033.16;;;1.97;94.71
50364;BME280;36272;59.400;17.982;2023-03-21T05:44:47;101030.69;;;2.03;94.26
50364;BME280;36272;59.400;17.982;2023-03-21T05:49:49;101042.22;;;2.02;94.51
50364;BME280;36272;59.400;17.982;2023-03-21T05:54:54;101040.31;;;2.13;94.42
50364;BME280;36272;59.400;17.982;2023-03-21T05:59:56;101040.19;;;2.22;94.05
50364;BME280;36272;59.400;17.982;2023-03-21T06:04:57;101043.00;;;2.21;93.96
50364;BME280;36272;59.400;17.982;2023-03-21T06:09:59;101056.84;;;2.23;94.16
50364;BME280;36272;59.400;17.982;2023-03-21T06:15:01;101046.84;;;2.35;94.09
50364;BME280;36272;59.400;17.982;2023-03-21T06:20:05;101048.03;;;2.41;94.15
50364;BME280;36272;59.400;17.982;2023-03-21T06:25:07;101053.31;;;2.41;94.11
50364;BME280;36272;59.400;17.982;2023-03-21T06:30:10;101049.53;;;2.51;94.41
50364;BME280;36272;59.400;17.982;2023-03-21T06:35:12;101052.38;;;2.66;94.02
50364;BME280;36272;59.400;17.982;2023-03-21T06:40:14;101045.94;;;2.69;93.87
50364;BME280;36272;59.400;17.982;2023-03-21T06:45:16;101055.19;;;2.73;93.89
50364;BME280;36272;59.400;17.982;2023-03-21T06:50:18;101051.72;;;2.73;94.01
50364;BME280;36272;59.400;17.982;2023-03-21T06:55:19;101058.16;;;2.70;94.25
50364;BME280;36272;59.400;17.982;2023-03-21T07:00:26;101056.38;;;2.79;94.07
50364;BME280;36272;59.400;17.982;2023-03-21T07:05:28;101063.66;;;2.85;93.63
50364;BME280;36272;59.400;17.982;2023-03-21T07:10:30;101057.03;;;2.89;94.32
50364;BME280;36272;59.400;17.982;2023-03-21T07:15:32;101064.31;;;3.04;94.08
50364;BME280;36272;59.400;17.982;2023-03-21T07:20:35;101047.66;;;3.20;94.07
50364;BME280;36272;59.400;17.982;2023-03-21T07:25:38;101051.44;;;3.34;93.51
50364;BME280;36272;59.400;17.982;2023-03-21T07:30:40;101055.75;;;3.43;93.76
50364;BME280;36272;59.400;17.982;2023-03-21T07:35:41;101062.50;;;3.54;93.32
50364;BME280;36272;59.400;17.982;2023-03-21T07:40:44;101065.00;;;3.47;93.55
50364;BME280;36272;59.400;17.982;2023-03-21T07:45:46;101089.78;;;3.63;93.68
50364;BME280;36272;59.400;17.982;2023-03-21T07:50:48;101068.25;;;3.82;93.13
50364;BME280;36272;59.400;17.982;2023-03-21T07:55:51;101070.34;;;4.04;92.80
50364;BME280;36272;59.400;17.982;2023-03-21T08:00:54;101076.16;;;3.99;92.68
50364;BME280;36272;59.400;17.982;2023-03-21T08:05:59;101069.88;;;4.00;93.13
50364;BME280;36272;59.400;17.982;2023-03-21T08:11:03;101075.16;;;4.00;93.04
50364;BME280;36272;59.400;17.982;2023-03-21T08:16:08;101081.13;;;3.94;93.35
50364;BME280;36272;59.400;17.982;2023-03-21T08:21:20;101076.13;;;4.07;93.65
50364;BME280;36272;59.400;17.982;2023-03-21T08:26:34;101095.91;;;4.28;93.13
50364;BME280;36272;59.400;17.982;2023-03-21T08:31:36;101091.44;;;4.37;93.02
50364;BME280;36272;59.400;17.982;2023-03-21T08:36:39;101085.31;;;4.36;93.18
50364;BME280;36272;59.400;17.982;2023-03-21T08:41:41;101093.34;;;4.51;93.32
50364;BME280;36272;59.400;17.982;2023-03-21T08:46:43;101093.00;;;4.54;93.01
50364;BME280;36272;59.400;17.982;2023-03-21T08:51:45;101085.75;;;4.80;92.56
50364;BME280;36272;59.400;17.982;2023-03-21T08:56:47;101078.44;;;4.82;91.75
50364;BME280;36272;59.400;17.982;2023-03-21T09:01:49;101073.41;;;4.95;92.53
50364;BME280;36272;59.400;17.982;2023-03-21T09:06:50;101081.75;;;5.30;91.71
50364;BME280;36272;59.400;17.982;2023-03-21T09:11:52;101077.13;;;5.47;91.14
50364;BME280;36272;59.400;17.982;2023-03-21T09:16:54;101082.00;;;5.44;91.35
50364;BME280;36272;59.400;17.982;2023-03-21T09:22:01;101061.84;;;5.34;92.69
50364;BME280;36272;59.400;17.982;2023-03-21T09:27:05;101079.84;;;5.39;92.30
50364;BME280;36272;59.400;17.982;2023-03-21T09:32:06;101081.22;;;5.35;92.59
50364;BME280;36272;59.400;17.982;2023-03-21T09:37:09;101077.09;;;5.32;93.31
50364;BME280;36272;59.400;17.982;2023-03-21T09:47:57;101064.19;;;5.83;92.44
50364;BME280;36272;59.400;17.982;2023-03-21T09:53:12;101060.47;;;6.07;91.73
50364;BME280;36272;59.400;17.982;2023-03-21T09:58:32;101060.09;;;6.25;92.06
50364;BME280;36272;59.400;17.982;2023-03-21T10:03:34;101061.84;;;6.69;87.63
50364;BME280;36272;59.400;17.982;2023-03-21T10:08:39;101061.16;;;6.61;90.79
50364;BME280;36272;59.400;17.982;2023-03-21T10:13:50;101056.41;;;6.78;90.63
50364;BME280;36272;59.400;17.982;2023-03-21T10:18:54;101049.72;;;7.04;90.14
50364;BME280;36272;59.400;17.982;2023-03-21T10:23:57;101043.09;;;7.43;89.26
50364;BME280;36272;59.400;17.982;2023-03-21T10:29:01;101040.75;;;7.62;88.79
50364;BME280;36272;59.400;17.982;2023-03-21T10:34:08;101038.25;;;7.53;88.34
50364;BME280;36272;59.400;17.982;2023-03-21T10:39:24;101048.81;;;7.40;88.39
50364;BME280;36272;59.400;17.982;2023-03-21T10:44:33;101035.59;;;7.25;88.74
50364;BME280;36272;59.400;17.982;2023-03-21T10:49:36;101036.66;;;7.31;89.57
50364;BME280;36272;59.400;17.982;2023-03-21T10:54:39;101027.16;;;7.50;89.34
50364;BME280;36272;59.400;17.982;2023-03-21T10:59:44;101026.13;;;7.79;89.49
50364;BME280;36272;59.400;17.982;2023-03-21T11:04:48;101036.47;;;7.96;88.31
50364;BME280;36272;59.400;17.982;2023-03-21T11:09:56;101020.06;;;7.99;87.79
50364;BME280;36272;59.400;17.982;2023-03-21T11:15:15;101012.38;;;8.17;89.22
50364;BME280;36272;59.400;17.982;2023-03-21T11:20:28;101005.59;;;8.84;88.49
50364;BME280;36272;59.400;17.982;2023-03-21T11:25:36;101004.56;;;11.02;83.87
50364;BME280;36272;59.400;17.982;2023-03-21T11:30:57;100992.13;;;14.23;75.59
50364;BME280;36272;59.400;17.982;2023-03-21T11:41:23;100994.31;;;20.69;62.64
50364;BME280;36272;59.400;17.982;2023-03-21T11:46:27;100977.91;;;22.83;59.46
50364;BME280;36272;59.400;17.982;2023-03-21T11:51:50;100976.56;;;23.13;58.59
50364;BME280;36272;59.400;17.982;2023-03-21T11:57:17;100985.69;;;22.18;59.83
50364;BME280;36272;59.400;17.982;2023-03-21T12:12:50;100983.75;;;20.68;60.70
50364;BME280;36272;59.400;17.982;2023-03-21T12:18:22;100965.72;;;19.97;62.09
50364;BME280;36272;59.400;17.982;2023-03-21T12:39:35;100947.06;;;23.57;54.34
50364;BME280;36272;59.400;17.982;2023-03-21T12:44:44;100952.88;;;22.28;55.79
50364;BME280;36272;59.400;17.982;2023-03-21T12:49:56;100967.75;;;20.61;56.96
50364;BME280;36272;59.400;17.982;2023-03-21T12:55:08;100965.72;;;19.16;60.62
50364;BME280;36272;59.400;17.982;2023-03-21T13:00:37;100953.78;;;19.17;60.90
50364;BME280;36272;59.400;17.982;2023-03-21T13:05:46;100949.88;;;21.19;56.22
50364;BME280;36272;59.400;17.982;2023-03-21T13:10:50;100945.81;;;21.65;54.50
50364;BME280;36272;59.400;17.982;2023-03-21T13:26:52;100924.25;;;16.62;63.79
50364;BME280;36272;59.400;17.982;2023-03-21T13:32:05;100918.66;;;15.65;66.35
50364;BME280;36272;59.400;17.982;2023-03-21T13:37:14;100931.97;;;14.93;66.65
50364;BME280;36272;59.400;17.982;2023-03-21T13:42:23;100926.94;;;14.33;67.73
50364;BME280;36272;59.400;17.982;2023-03-21T13:47:41;100923.97;;;15.59;66.41
50364;BME280;36272;59.400;17.982;2023-03-21T14:03:46;100900.19;;;14.26;69.34
50364;BME280;36272;59.400;17.982;2023-03-21T14:08:53;100890.75;;;13.66;68.46
50364;BME280;36272;59.400;17.982;2023-03-21T14:13:55;100906.56;;;13.03;71.01
50364;BME280;36272;59.400;17.982;2023-03-21T14:19:02;100900.22;;;12.49;71.13
50364;BME280;36272;59.400;17.982;2023-03-21T14:24:11;100889.72;;;12.05;71.61
50364;BME280;36272;59.400;17.982;2023-03-21T14:29:33;100891.03;;;11.66;72.36
50364;BME280;36272;59.400;17.982;2023-03-21T14:34:36;100886.41;;;11.36;73.55
50364;BME280;36272;59.400;17.982;2023-03-21T14:39:37;100885.19;;;10.94;73.33
50364;BME280;36272;59.400;17.982;2023-03-21T14:44:41;100874.94;;;10.66;74.26
50364;BME280;36272;59.400;17.982;2023-03-21T14:49:43;100890.94;;;10.47;74.76
50364;BME280;36272;59.400;17.982;2023-03-21T14:54:46;100878.63;;;10.39;74.31
50364;BME280;36272;59.400;17.982;2023-03-21T14:59:50;100864.81;;;10.10;73.65
50364;BME280;36272;59.400;17.982;2023-03-21T15:04:56;100865.00;;;9.84;73.99
50364;BME280;36272;59.400;17.982;2023-03-21T15:10:01;100862.59;;;9.62;73.76
50364;BME280;36272;59.400;17.982;2023-03-21T15:15:05;100861.63;;;9.49;74.47
50364;BME280;36272;59.400;17.982;2023-03-21T15:20:13;100860.25;;;9.40;74.06
50364;BME280;36272;59.400;17.982;2023-03-21T15:25:19;100845.44;;;9.37;74.12
50364;BME280;36272;59.400;17.982;2023-03-21T15:30:26;100848.78;;;9.26;74.39
50364;BME280;36272;59.400;17.982;2023-03-21T15:35:40;100840.78;;;9.19;74.88
50364;BME280;36272;59.400;17.982;2023-03-21T15:40:47;100830.94;;;9.20;74.32
50364;BME280;36272;59.400;17.982;2023-03-21T15:45:51;100824.16;;;9.17;74.99
50364;BME280;36272;59.400;17.982;2023-03-21T15:51:01;100824.78;;;9.06;73.99
50364;BME280;36272;59.400;17.982;2023-03-21T15:56:08;100813.16;;;8.87;74.44
50364;BME280;36272;59.400;17.982;2023-03-21T16:01:18;100810.28;;;8.75;75.08
50364;BME280;36272;59.400;17.982;2023-03-21T16:06:22;100807.22;;;8.65;75.24
50364;BME280;36272;59.400;17.982;2023-03-21T16:17:59;100804.56;;;8.65;75.12
50364;BME280;36272;59.400;17.982;2023-03-21T16:23:03;100807.41;;;8.83;76.87
50364;BME280;36272;59.400;17.982;2023-03-21T16:28:24;100811.16;;;8.55;75.96
50364;BME280;36272;59.400;17.982;2023-03-21T16:33:26;100829.56;;;8.37;75.89
50364;BME280;36272;59.400;17.982;2023-03-21T16:38:28;100818.09;;;8.16;75.49
50364;BME280;36272;59.400;17.982;2023-03-21T16:43:30;100817.44;;;8.00;75.78
50364;BME280;36272;59.400;17.982;2023-03-21T16:48:38;100803.69;;;7.83;75.75
50364;BME280;36272;59.400;17.982;2023-03-21T16:53:40;100813.09;;;7.72;76.10
50364;BME280;36272;59.400;17.982;2023-03-21T16:58:42;100811.34;;;7.51;75.40
50364;BME280;36272;59.400;17.982;2023-03-21T17:03:47;100806.00;;;7.38;75.86
50364;BME280;36272;59.400;17.982;2023-03-21T17:08:52;100813.31;;;7.29;75.68
50364;BME280;36272;59.400;17.982;2023-03-21T17:13:54;100826.75;;;7.14;75.39
50364;BME280;36272;59.400;17.982;2023-03-21T17:18:56;100823.44;;;7.05;75.77
50364;BME280;36272;59.400;17.982;2023-03-21T17:24:11;100824.59;;;6.96;75.83
50364;BME280;36272;59.400;17.982;2023-03-21T17:29:13;100822.72;;;6.90;75.93
50364;BME280;36272;59.400;17.982;2023-03-21T17:34:16;100819.81;;;6.84;75.98
50364;BME280;36272;59.400;17.982;2023-03-21T17:39:21;100808.78;;;6.81;76.02
50364;BME280;36272;59.400;17.982;2023-03-21T17:44:27;100803.03;;;6.77;75.73
50364;BME280;36272;59.400;17.982;2023-03-21T17:49:29;100807.28;;;6.72;75.78
50364;BME280;36272;59.400;17.982;2023-03-21T17:54:31;100812.13;;;6.61;76.17
50364;BME280;36272;59.400;17.982;2023-03-21T17:59:33;100810.41;;;6.53;75.97
50364;BME280;36272;59.400;17.982;2023-03-21T18:04:34;100817.97;;;6.50;76.07
50364;BME280;36272;59.400;17.982;2023-03-21T18:09:46;100805.81;;;6.40;76.24
50364;BME280;36272;59.400;17.982;2023-03-21T18:14:50;100813.13;;;6.32;76.30
50364;BME280;36272;59.400;17.982;2023-03-21T18:19:53;100811.41;;;6.24;76.56
50364;BME280;36272;59.400;17.982;2023-03-21T18:24:55;100806.88;;;6.18;76.44
50364;BME280;36272;59.400;17.982;2023-03-21T18:29:58;100796.53;;;6.08;76.94
50364;BME280;36272;59.400;17.982;2023-03-21T18:34:59;100796.00;;;5.98;77.03
50364;BME280;36272;59.400;17.982;2023-03-21T18:40:01;100787.81;;;5.92;77.04
50364;BME280;36272;59.400;17.982;2023-03-21T18:45:08;100779.88;;;5.77;77.56
50364;BME280;36272;59.400;17.982;2023-03-21T18:50:11;100790.44;;;5.71;77.64
50364;BME280;36272;59.400;17.982;2023-03-21T18:55:13;100793.66;;;5.66;77.67
50364;BME280;36272;59.400;17.982;2023-03-21T19:00:15;100782.16;;;5.59;77.92
50364;BME280;36272;59.400;17.982;2023-03-21T19:05:23;100765.75;;;5.55;78.10
50364;BME280;36272;59.400;17.982;2023-03-21T19:10:28;100781.03;;;5.53;77.73
50364;BME280;36272;59.400;17.982;2023-03-21T19:15:29;100776.31;;;5.48;78.07
50364;BME280;36272;59.400;17.982;2023-03-21T19:20:32;100770.75;;;5.43;78.13
50364;BME280;36272;59.400;17.982;2023-03-21T19:25:34;100778.25;;;5.40;78.34
50364;BME280;36272;59.400;17.982;2023-03-21T19:30:36;100771.13;;;5.40;78.31
50364;BME280;36272;59.400;17.982;2023-03-21T19:35:40;100761.06;;;5.35;78.29
50364;BME280;36272;59.400;17.982;2023-03-21T19:40:42;100765.47;;;5.28;78.60
50364;BME280;36272;59.400;17.982;2023-03-21T19:45:47;100761.91;;;5.21;78.96
50364;BME280;36272;59.400;17.982;2023-03-21T19:50:49;100754.31;;;5.18;79.06
50364;BME280;36272;59.400;17.982;2023-03-21T19:55:51;100771.97;;;5.11;79.36
50364;BME280;36272;59.400;17.982;2023-03-21T20:01:21;100743.44;;;5.13;79.75
50364;BME280;36272;59.400;17.982;2023-03-21T20:06:35;100743.44;;;5.13;79.73
50364;BME280;36272;59.400;17.982;2023-03-21T20:11:38;100739.72;;;5.07;79.60
50364;BME280;36272;59.400;17.982;2023-03-21T20:16:40;100734.22;;;5.09;79.66
50364;BME280;36272;59.400;17.982;2023-03-21T20:21:52;100713.84;;;5.09;79.94
50364;BME280;36272;59.400;17.982;2023-03-21T20:26:54;100729.31;;;5.05;79.83
50364;BME280;36272;59.400;17.982;2023-03-21T20:31:58;100725.53;;;5.00;79.92
50364;BME280;36272;59.400;17.982;2023-03-21T20:37:00;100722.63;;;4.95;80.25
50364;BME280;36272;59.400;17.982;2023-03-21T20:42:03;100722.19;;;4.91;80.55
50364;BME280;36272;59.400;17.982;2023-03-21T20:47:08;100718.53;;;4.92;80.39
50364;BME280;36272;59.400;17.982;2023-03-21T20:52:10;100713.41;;;4.90;80.62
50364;BME280;36272;59.400;17.982;2023-03-21T20:57:12;100718.91;;;4.89;80.70
50364;BME280;36272;59.400;17.982;2023-03-21T21:02:14;100700.72;;;4.86;80.99
50364;BME280;36272;59.400;17.982;2023-03-21T21:07:22;100714.69;;;4.80;81.12
50364;BME280;36272;59.400;17.982;2023-03-21T21:12:28;100694.13;;;4.82;81.24
50364;BME280;36272;59.400;17.982;2023-03-21T21:17:38;100676.59;;;4.81;81.42
50364;BME280;36272;59.400;17.982;2023-03-21T21:22:47;100675.94;;;4.79;81.32
50364;BME280;36272;59.400;17.982;2023-03-21T21:27:57;100691.84;;;4.79;81.55
50364;BME280;36272;59.400;17.982;2023-03-21T21:33:05;100676.78;;;4.79;81.68
50364;BME280;36272;59.400;17.982;2023-03-21T21:38:19;100657.84;;;4.82;81.83
50364;BME280;36272;59.400;17.982;2023-03-21T21:43:59;100656.66;;;4.85;81.77
50364;BME280;36272;59.400;17.982;2023-03-21T21:49:10;100661.31;;;4.83;81.57
50364;BME280;36272;59.400;17.982;2023-03-21T21:54:17;100646.69;;;4.87;82.03
50364;BME280;36272;59.400;17.982;2023-03-21T21:59:24;100630.34;;;4.83;81.95
50364;BME280;36272;59.400;17.982;2023-03-21T22:17:26;100617.06;;;4.98;82.26
50364;BME280;36272;59.400;17.982;2023-03-21T22:22:43;100611.28;;;4.95;82.20
50364;BME280;36272;59.400;17.982;2023-03-21T22:28:19;100600.06;;;4.93;82.37
50364;BME280;36272;59.400;17.982;2023-03-21T22:33:50;100591.94;;;4.94;82.62
50364;BME280;36272;59.400;17.982;2023-03-21T22:38:57;100591.47;;;4.90;82.24
50364;BME280;36272;59.400;17.982;2023-03-21T22:43:59;100596.13;;;4.88;82.21
50364;BME280;36272;59.400;17.982;2023-03-21T22:49:06;100573.28;;;4.87;82.58
50364;BME280;36272;59.400;17.982;2023-03-21T22:54:08;100580.22;;;4.88;82.70
50364;BME280;36272;59.400;17.982;2023-03-21T23:05:27;100551.84;;;4.82;82.61
50364;BME280;36272;59.400;17.982;2023-03-21T23:10:38;100537.44;;;4.91;82.84
50364;BME280;36272;59.400;17.982;2023-03-21T23:15:41;100540.72;;;4.94;82.66
50364;BME280;36272;59.400;17.982;2023-03-21T23:20:46;100544.84;;;4.96;82.64
50364;BME280;36272;59.400;17.982;2023-03-21T23:25:50;100525.28;;;4.97;82.77
50364;BME280;36272;59.400;17.982;2023-03-21T23:30:54;100528.56;;;4.99;82.66
50364;BME280;36272;59.400;17.982;2023-03-21T23:35:56;100521.38;;;4.93;82.79
50364;BME280;36272;59.400;17.982;2023-03-21T23:40:58;100510.50;;;4.88;82.83
50364;BME280;36272;59.400;17.982;2023-03-21T23:46:03;100505.19;;;4.88;82.98
50364;BME280;36272;59.400;17.982;2023-03-21T23:51:05;100506.97;;;4.81;83.28
50364;BME280;36272;59.400;17.982;2023-03-21T23:56:14;100491.44;;;4.78;83.45
